East Douglas, Massachusetts
Current Conditions -  °F | °C
As of 12:54 PM on Sunday 25 Jan 2015 (Local Time) from KORH Reporting Station
Scattered Clouds Scattered Clouds  
Wind Chill: 18°   Ceiling: Unl
Heat Index: 30°   Visibility: 10mi
Dew Point: 11°   Wind: 18mph
Humidity: 45%   Direction: 300°WNW
Pressure: 29.61"   Gusts: 28mph
Location:  42.0528°N, 71.7498°W
Report Text: KORH 251754Z 30016G24KT 10SM SCT040 M01/M12 A2961 RMK AO2 PK WND 27027/1658 SLP041 60000 T10111117 11006 21022 51017
Loading
Personal Weather Stations






























Interactive Weather Map New forecast layout! Learn more

10-Day Weather Forecast

Advertisements
Track Severe Weather on mobile